Time;durP1;ratioP1;P1;durP2;ratioP2;P2;SDS_P1;SDS_P2;PMS_P1;PMS_P2;Temp;Humidity;BMP_temperature;BMP_pressure;BME280_temperature;BME280_humidity;BME280_pressure;Samples;Min_cycle;Max_cycle;Signal;HPM_P1;HPM_P2
2021/06/18 00:01:50;;;;;;;5.33;4.20;;;;;;;;;;5056804;28;20685;-53
2021/06/18 00:04:16;;;;;;;5.10;4.63;;;;;;;;;;5055732;28;20170;-52
2021/06/18 00:06:42;;;;;;;6.10;4.00;;;;;;;;;;5053840;28;20635;-53
2021/06/18 00:09:08;;;;;;;4.80;4.30;;;;;;;;;;5045383;28;20182;-56
2021/06/18 00:11:35;;;;;;;4.73;4.30;;;;;;;;;;5054513;28;20205;-56
2021/06/18 00:14:01;;;;;;;6.28;4.60;;;;;;;;;;5054495;28;20411;-54
2021/06/18 00:16:27;;;;;;;5.07;4.27;;;;;;;;;;5055179;28;20240;-53
2021/06/18 00:18:53;;;;;;;5.53;4.50;;;;;;;;;;5058085;28;20266;-54
2021/06/18 00:21:19;;;;;;;4.30;3.90;;;;;;;;;;5056281;28;20198;-53
2021/06/18 00:23:45;;;;;;;5.73;4.40;;;;;;;;;;5055985;28;20184;-53
2021/06/18 00:26:11;;;;;;;5.20;4.70;;;;;;;;;;5056719;28;20173;-54
2021/06/18 00:28:37;;;;;;;4.90;4.03;;;;;;;;;;5055339;28;20183;-53
2021/06/18 00:31:03;;;;;;;6.03;4.20;;;;;;;;;;5056171;28;20192;-52
2021/06/18 00:33:30;;;;;;;5.30;3.77;;;;;;;;;;5055317;28;20191;-53
2021/06/18 00:35:57;;;;;;;4.70;3.70;;;;;;;;;;5060393;28;20628;-53
2021/06/18 00:38:23;;;;;;;5.27;4.17;;;;;;;;;;5056862;28;20195;-53
2021/06/18 00:40:49;;;;;;;3.97;3.67;;;;;;;;;;5056964;28;20180;-53
2021/06/18 00:43:15;;;;;;;3.93;3.53;;;;;;;;;;5056300;28;20629;-56
2021/06/18 00:45:41;;;;;;;3.93;3.63;;;;;;;;;;5056676;28;20194;-53
2021/06/18 00:48:07;;;;;;;4.10;3.70;;;;;;;;;;5055893;28;20190;-53
2021/06/18 00:50:34;;;;;;;4.33;3.90;;;;;;;;;;5056286;28;20245;-53
2021/06/18 00:53:00;;;;;;;3.77;3.47;;;;;;;;;;5067489;28;20271;-53
2021/06/18 00:55:26;;;;;;;4.20;3.73;;;;;;;;;;5060023;28;20270;-53
2021/06/18 00:57:52;;;;;;;3.90;3.47;;;;;;;;;;5058054;28;20187;-53
2021/06/18 01:00:19;;;;;;;4.77;4.23;;;;;;;;;;5060831;28;20639;-54
2021/06/18 01:02:45;;;;;;;4.17;3.80;;;;;;;;;;5056665;28;20615;-53
2021/06/18 01:05:13;;;;;;;4.55;4.15;;;;;;;;;;5056674;28;20426;-53
2021/06/18 01:07:58;;;;;;;4.80;4.07;;;;;;;;;;5046364;28;20646;-55
2021/06/18 01:10:35;;;;;;;4.40;4.00;;;;;;;;;;5055115;28;20189;-53
2021/06/18 01:13:09;;;;;;;4.03;3.73;;;;;;;;;;5054973;28;20183;-53
2021/06/18 01:15:42;;;;;;;4.10;3.73;;;;;;;;;;5056490;28;20219;-53
2021/06/18 01:18:11;;;;;;;7.30;4.20;;;;;;;;;;5049035;28;20173;-53
2021/06/18 01:20:53;;;;;;;4.63;4.20;;;;;;;;;;5041220;28;20522;-53
2021/06/18 01:23:28;;;;;;;5.20;3.87;;;;;;;;;;5056698;28;20192;-53
2021/06/18 01:26:05;;;;;;;5.17;3.77;;;;;;;;;;5057676;28;20242;-53
2021/06/18 01:28:31;;;;;;;4.60;4.20;;;;;;;;;;5055184;28;20186;-56
2021/06/18 01:30:58;;;;;;;5.20;3.80;;;;;;;;;;5056415;28;20203;-53
2021/06/18 01:33:25;;;;;;;4.37;3.97;;;;;;;;;;5055451;28;20650;-53
2021/06/18 01:35:54;;;;;;;4.73;4.23;;;;;;;;;;5056454;28;20665;-54
2021/06/18 01:38:21;;;;;;;5.50;3.63;;;;;;;;;;5056265;28;20178;-53
2021/06/18 01:40:49;;;;;;;4.33;3.93;;;;;;;;;;5056469;28;20227;-53
2021/06/18 01:43:18;;;;;;;4.83;4.03;;;;;;;;;;5055371;28;20184;-53
2021/06/18 01:45:45;;;;;;;4.63;3.80;;;;;;;;;;5056337;28;20187;-54
2021/06/18 01:48:12;;;;;;;4.87;4.27;;;;;;;;;;5054185;28;20550;-53
2021/06/18 01:50:39;;;;;;;5.57;3.57;;;;;;;;;;5056500;28;20497;-53
2021/06/18 01:53:08;;;;;;;3.80;3.60;;;;;;;;;;5053590;28;20212;-54
2021/06/18 01:55:34;;;;;;;4.10;3.70;;;;;;;;;;5055035;28;20521;-54
2021/06/18 01:58:02;;;;;;;4.13;3.83;;;;;;;;;;5036401;28;20174;-53
2021/06/18 02:00:29;;;;;;;5.43;4.33;;;;;;;;;;5039996;28;20231;-53
2021/06/18 02:02:57;;;;;;;4.83;3.53;;;;;;;;;;5036366;28;20209;-53
2021/06/18 02:05:23;;;;;;;4.90;4.20;;;;;;;;;;5055869;28;20212;-54
2021/06/18 02:07:52;;;;;;;4.40;3.80;;;;;;;;;;5054488;28;20183;-53
2021/06/18 02:10:19;;;;;;;5.53;4.30;;;;;;;;;;5054680;28;20183;-53
2021/06/18 02:12:46;;;;;;;4.20;3.80;;;;;;;;;;5050448;28;20222;-53
2021/06/18 02:15:13;;;;;;;4.10;3.80;;;;;;;;;;5054225;28;20248;-54
2021/06/18 02:17:42;;;;;;;4.67;4.27;;;;;;;;;;5052686;28;20188;-52
2021/06/18 02:20:09;;;;;;;4.87;4.47;;;;;;;;;;5054213;28;20183;-53
2021/06/18 02:22:36;;;;;;;4.27;3.87;;;;;;;;;;5053446;28;20264;-53
2021/06/18 02:25:03;;;;;;;5.30;3.70;;;;;;;;;;5054214;28;20183;-56
2021/06/18 02:27:29;;;;;;;4.47;4.07;;;;;;;;;;5053658;28;20862;-56
2021/06/18 02:29:56;;;;;;;4.47;4.07;;;;;;;;;;5053746;28;20236;-53
2021/06/18 02:32:24;;;;;;;4.03;3.70;;;;;;;;;;5045029;28;20185;-53
2021/06/18 02:34:50;;;;;;;4.13;3.73;;;;;;;;;;5048129;28;20224;-53
2021/06/18 02:37:16;;;;;;;4.30;4.00;;;;;;;;;;5052469;28;20193;-53
2021/06/18 02:39:43;;;;;;;4.37;3.97;;;;;;;;;;5056909;28;20182;-56
2021/06/18 02:42:10;;;;;;;4.40;4.00;;;;;;;;;;5034685;28;20178;-53
2021/06/18 02:44:36;;;;;;;5.00;4.23;;;;;;;;;;5053397;28;20186;-53
2021/06/18 02:47:11;;;;;;;4.50;4.10;;;;;;;;;;5053122;28;20180;-53
2021/06/18 02:49:43;;;;;;;4.03;3.73;;;;;;;;;;5041304;28;20190;-55
2021/06/18 02:52:11;;;;;;;4.00;3.70;;;;;;;;;;5059861;28;20580;-53
2021/06/18 02:54:44;;;;;;;4.47;4.13;;;;;;;;;;5054016;28;21105;-53
2021/06/18 02:57:14;;;;;;;4.47;4.07;;;;;;;;;;5052019;28;20208;-56
2021/06/18 03:00:10;;;;;;;4.27;3.80;;;;;;;;;;5053384;28;20195;-53
2021/06/18 03:02:40;;;;;;;4.50;4.10;;;;;;;;;;5036119;28;20293;-53
2021/06/18 03:05:08;;;;;;;6.13;4.57;;;;;;;;;;5053834;28;20194;-53
2021/06/18 03:07:35;;;;;;;4.47;4.17;;;;;;;;;;5052655;28;20188;-54
2021/06/18 03:10:04;;;;;;;4.50;4.10;;;;;;;;;;5058619;28;20183;-53
2021/06/18 03:12:31;;;;;;;5.33;4.50;;;;;;;;;;5054220;28;20284;-54
2021/06/18 03:15:01;;;;;;;4.73;4.33;;;;;;;;;;5058661;28;20800;-53
2021/06/18 03:17:29;;;;;;;4.33;3.90;;;;;;;;;;5058726;28;20207;-55
2021/06/18 03:19:59;;;;;;;4.27;3.87;;;;;;;;;;5056163;28;20184;-54
2021/06/18 03:22:26;;;;;;;4.17;3.83;;;;;;;;;;5053483;28;20586;-53
2021/06/18 03:24:53;;;;;;;7.03;4.45;;;;;;;;;;5054546;28;21021;-53
2021/06/18 03:27:20;;;;;;;4.83;4.00;;;;;;;;;;5053367;28;20181;-54
2021/06/18 03:29:47;;;;;;;5.67;4.47;;;;;;;;;;5054551;28;20204;-54
2021/06/18 03:32:15;;;;;;;4.83;4.20;;;;;;;;;;5053188;28;20665;-55
2021/06/18 03:34:42;;;;;;;5.00;4.20;;;;;;;;;;5054299;28;20195;-53
2021/06/18 03:37:09;;;;;;;4.40;4.00;;;;;;;;;;5044364;28;20235;-56
2021/06/18 03:39:35;;;;;;;6.10;4.60;;;;;;;;;;5054879;28;20185;-53
2021/06/18 03:42:02;;;;;;;5.30;4.80;;;;;;;;;;5056282;28;20255;-53
2021/06/18 03:44:28;;;;;;;4.83;4.43;;;;;;;;;;5039708;28;20180;-53
2021/06/18 03:46:55;;;;;;;5.30;4.80;;;;;;;;;;5058083;28;20192;-54
2021/06/18 03:49:24;;;;;;;4.93;4.43;;;;;;;;;;5056526;28;20188;-55
2021/06/18 03:51:50;;;;;;;4.53;3.97;;;;;;;;;;5058385;28;20205;-53
2021/06/18 03:54:17;;;;;;;4.63;4.23;;;;;;;;;;5057095;28;20206;-53
2021/06/18 03:56:47;;;;;;;5.77;4.70;;;;;;;;;;5054731;28;20203;-53
2021/06/18 03:59:14;;;;;;;5.07;4.63;;;;;;;;;;5055074;28;20220;-53
2021/06/18 04:01:42;;;;;;;6.57;4.60;;;;;;;;;;5056628;28;20213;-53
2021/06/18 04:04:08;;;;;;;5.00;4.60;;;;;;;;;;5056211;28;20207;-52
2021/06/18 04:06:35;;;;;;;4.83;4.43;;;;;;;;;;5038292;28;20237;-53
2021/06/18 04:09:01;;;;;;;5.87;4.57;;;;;;;;;;5056037;28;20551;-53
2021/06/18 04:11:27;;;;;;;5.27;4.70;;;;;;;;;;5056074;28;20249;-53
2021/06/18 04:13:53;;;;;;;5.87;5.27;;;;;;;;;;5051660;28;20251;-53
2021/06/18 04:16:20;;;;;;;7.60;4.60;;;;;;;;;;5052930;28;20226;-54
2021/06/18 04:18:47;;;;;;;4.97;4.57;;;;;;;;;;5046231;28;20209;-53
2021/06/18 04:21:14;;;;;;;5.10;4.60;;;;;;;;;;5056163;28;20256;-52
2021/06/18 04:23:41;;;;;;;5.57;5.07;;;;;;;;;;5058230;28;20173;-52
2021/06/18 04:26:07;;;;;;;5.57;4.37;;;;;;;;;;5056289;28;20247;-53
2021/06/18 04:28:33;;;;;;;4.80;4.33;;;;;;;;;;5054984;28;20208;-54
2021/06/18 04:30:59;;;;;;;6.10;5.00;;;;;;;;;;5055840;28;20263;-52
2021/06/18 04:33:25;;;;;;;5.47;4.97;;;;;;;;;;5054145;28;20189;-53
2021/06/18 04:35:51;;;;;;;5.20;4.80;;;;;;;;;;5054570;28;20289;-52
2021/06/18 04:38:17;;;;;;;6.00;5.40;;;;;;;;;;5055166;28;20261;-52
2021/06/18 04:40:43;;;;;;;5.10;4.60;;;;;;;;;;5054916;28;20275;-53
2021/06/18 04:43:09;;;;;;;5.73;4.93;;;;;;;;;;5054826;28;20257;-52
2021/06/18 04:45:35;;;;;;;6.50;5.13;;;;;;;;;;5055152;28;20185;-53
2021/06/18 04:48:01;;;;;;;5.20;4.53;;;;;;;;;;5053233;28;20193;-52
2021/06/18 04:50:27;;;;;;;5.37;4.67;;;;;;;;;;5053878;28;20177;-53
2021/06/18 04:52:53;;;;;;;5.47;4.97;;;;;;;;;;5051642;28;20184;-52
2021/06/18 04:55:21;;;;;;;5.00;4.60;;;;;;;;;;5052951;28;20177;-56
2021/06/18 04:57:48;;;;;;;6.00;5.13;;;;;;;;;;5053205;28;20178;-53
2021/06/18 05:00:15;;;;;;;5.73;4.80;;;;;;;;;;5055894;28;20189;-52
2021/06/18 05:02:41;;;;;;;5.37;4.83;;;;;;;;;;5052124;28;20200;-54
2021/06/18 05:05:07;;;;;;;6.53;4.70;;;;;;;;;;5055680;28;20181;-53
2021/06/18 05:07:33;;;;;;;5.10;4.57;;;;;;;;;;5053344;28;20574;-53
2021/06/18 05:09:59;;;;;;;5.03;4.60;;;;;;;;;;5054622;28;20670;-52
2021/06/18 05:12:26;;;;;;;5.20;4.70;;;;;;;;;;5052368;28;20758;-54
2021/06/18 05:14:52;;;;;;;5.63;4.97;;;;;;;;;;5051912;28;20187;-54
2021/06/18 05:17:18;;;;;;;5.53;5.00;;;;;;;;;;5049903;28;20210;-52
2021/06/18 05:19:44;;;;;;;7.83;5.83;;;;;;;;;;5053134;28;20177;-54
2021/06/18 05:22:10;;;;;;;5.83;5.23;;;;;;;;;;5053345;28;20247;-56
2021/06/18 05:24:36;;;;;;;6.30;5.17;;;;;;;;;;5053767;28;20187;-52
2021/06/18 05:27:02;;;;;;;6.57;5.17;;;;;;;;;;5035863;28;20212;-53
2021/06/18 05:29:28;;;;;;;5.97;5.47;;;;;;;;;;5054075;28;20223;-52
2021/06/18 05:31:55;;;;;;;6.10;5.60;;;;;;;;;;5054220;28;20186;-53
2021/06/18 05:34:21;;;;;;;5.40;4.90;;;;;;;;;;5054456;28;20244;-53
2021/06/18 05:36:48;;;;;;;6.57;5.97;;;;;;;;;;5053765;28;20232;-53
2021/06/18 05:39:14;;;;;;;5.73;5.30;;;;;;;;;;5053727;28;20198;-53
2021/06/18 05:41:41;;;;;;;9.50;5.87;;;;;;;;;;5059694;28;20187;-56
2021/06/18 05:44:07;;;;;;;7.83;6.13;;;;;;;;;;5051990;28;20423;-53
2021/06/18 05:46:33;;;;;;;6.23;5.27;;;;;;;;;;5036072;28;20173;-53
2021/06/18 05:48:59;;;;;;;6.57;5.97;;;;;;;;;;5046958;28;20184;-53
2021/06/18 05:51:25;;;;;;;6.30;5.70;;;;;;;;;;5046036;28;20605;-53
2021/06/18 05:53:53;;;;;;;6.23;5.53;;;;;;;;;;5048661;28;20178;-54
2021/06/18 05:56:19;;;;;;;6.47;5.27;;;;;;;;;;5048405;28;20657;-53
2021/06/18 05:58:45;;;;;;;5.87;5.37;;;;;;;;;;5052816;28;20183;-53
2021/06/18 06:01:11;;;;;;;7.07;6.37;;;;;;;;;;5044814;28;20261;-56
2021/06/18 06:03:37;;;;;;;6.10;5.50;;;;;;;;;;5054617;28;20229;-53
2021/06/18 06:06:05;;;;;;;5.97;5.47;;;;;;;;;;5051558;28;20184;-53
2021/06/18 06:08:31;;;;;;;6.93;6.00;;;;;;;;;;5052389;28;20189;-53
2021/06/18 06:10:57;;;;;;;6.10;5.53;;;;;;;;;;5051974;28;20175;-54
2021/06/18 06:13:25;;;;;;;5.13;4.73;;;;;;;;;;5045731;28;20192;-53
2021/06/18 06:15:51;;;;;;;7.80;6.00;;;;;;;;;;5051632;28;20258;-55
2021/06/18 06:18:18;;;;;;;7.03;5.60;;;;;;;;;;5047789;28;20242;-53
2021/06/18 06:20:44;;;;;;;5.50;5.10;;;;;;;;;;5052325;28;20189;-53
2021/06/18 06:23:11;;;;;;;9.53;5.67;;;;;;;;;;5041167;28;20190;-52
2021/06/18 06:25:38;;;;;;;6.17;5.57;;;;;;;;;;5051320;28;20304;-54
2021/06/18 06:28:04;;;;;;;7.73;5.37;;;;;;;;;;5050305;28;20406;-52
2021/06/18 06:30:30;;;;;;;6.17;5.67;;;;;;;;;;5050178;28;20182;-53
2021/06/18 06:32:56;;;;;;;6.17;4.73;;;;;;;;;;5044778;28;20268;-56
2021/06/18 06:35:24;;;;;;;7.00;6.40;;;;;;;;;;5049520;28;20638;-54
2021/06/18 06:37:50;;;;;;;6.20;5.60;;;;;;;;;;5044416;28;20188;-54
2021/06/18 06:40:16;;;;;;;6.63;5.90;;;;;;;;;;5031791;28;20223;-53
2021/06/18 06:42:42;;;;;;;7.43;6.07;;;;;;;;;;5052256;28;20641;-54
2021/06/18 06:45:09;;;;;;;7.07;6.47;;;;;;;;;;5051465;28;20180;-53
2021/06/18 06:47:35;;;;;;;6.70;6.07;;;;;;;;;;5050655;28;20204;-54
2021/06/18 06:50:01;;;;;;;6.47;5.97;;;;;;;;;;5051879;28;20704;-54
2021/06/18 06:52:27;;;;;;;8.03;5.93;;;;;;;;;;5051162;28;20188;-53
2021/06/18 06:54:53;;;;;;;8.73;5.97;;;;;;;;;;5054028;28;20194;-55
2021/06/18 06:57:20;;;;;;;6.70;5.93;;;;;;;;;;5054454;28;20199;-52
2021/06/18 06:59:46;;;;;;;8.53;7.37;;;;;;;;;;5055539;28;20764;-53
2021/06/18 07:02:13;;;;;;;9.50;6.27;;;;;;;;;;5050615;28;20234;-53
2021/06/18 07:04:39;;;;;;;6.57;6.07;;;;;;;;;;5052928;28;20563;-53
2021/06/18 07:07:05;;;;;;;10.47;6.87;;;;;;;;;;5052322;28;20589;-53
2021/06/18 07:09:37;;;;;;;9.87;6.57;;;;;;;;;;5049819;28;20262;-53
2021/06/18 07:12:03;;;;;;;7.37;6.67;;;;;;;;;;5052068;28;20290;-53
2021/06/18 07:14:29;;;;;;;7.73;6.13;;;;;;;;;;5051251;28;20214;-53
2021/06/18 07:16:55;;;;;;;7.50;6.27;;;;;;;;;;5050492;28;20209;-52
2021/06/18 07:19:21;;;;;;;9.57;6.53;;;;;;;;;;5035643;28;20167;-52
2021/06/18 07:21:48;;;;;;;8.00;6.97;;;;;;;;;;5048430;28;20221;-54
2021/06/18 07:24:14;;;;;;;8.80;7.90;;;;;;;;;;5040929;28;20189;-53
2021/06/18 07:26:40;;;;;;;12.03;7.37;;;;;;;;;;5055281;28;21951;-53
2021/06/18 07:29:06;;;;;;;12.83;7.47;;;;;;;;;;5053843;28;20239;-54
2021/06/18 07:31:32;;;;;;;8.37;7.03;;;;;;;;;;5032854;28;20193;-53
2021/06/18 07:33:58;;;;;;;9.10;6.70;;;;;;;;;;5050847;28;20204;-53
2021/06/18 07:36:24;;;;;;;10.47;7.07;;;;;;;;;;5053419;28;20221;-55
2021/06/18 07:38:51;;;;;;;7.63;6.90;;;;;;;;;;5050774;28;20185;-53
2021/06/18 07:41:20;;;;;;;9.07;7.07;;;;;;;;;;5068670;28;20187;-55
2021/06/18 07:43:47;;;;;;;9.10;7.33;;;;;;;;;;5054433;28;20187;-55
2021/06/18 07:46:13;;;;;;;10.17;7.47;;;;;;;;;;5047542;28;20226;-56
2021/06/18 07:48:39;;;;;;;9.40;7.63;;;;;;;;;;5052137;28;20185;-53
2021/06/18 07:51:05;;;;;;;11.07;8.07;;;;;;;;;;5052960;28;20535;-54
2021/06/18 07:53:31;;;;;;;8.83;7.57;;;;;;;;;;5055477;28;20182;-53
2021/06/18 07:55:58;;;;;;;9.80;7.83;;;;;;;;;;5056253;28;20574;-53
2021/06/18 07:58:24;;;;;;;10.57;7.27;;;;;;;;;;5053999;28;20228;-54
2021/06/18 08:00:50;;;;;;;9.13;7.53;;;;;;;;;;5056688;28;20172;-54
2021/06/18 08:03:16;;;;;;;9.13;7.43;;;;;;;;;;5054586;28;20234;-53
2021/06/18 08:05:42;;;;;;;7.97;7.13;;;;;;;;;;5056894;28;20165;-53
2021/06/18 08:08:08;;;;;;;10.37;7.53;;;;;;;;;;5056865;28;20211;-57
2021/06/18 08:10:34;;;;;;;8.87;7.07;;;;;;;;;;5054678;28;20213;-54
2021/06/18 08:13:00;;;;;;;9.60;7.57;;;;;;;;;;5053972;28;20178;-55
2021/06/18 08:15:26;;;;;;;8.60;7.10;;;;;;;;;;5055434;28;20229;-53
2021/06/18 08:17:52;;;;;;;8.50;7.60;;;;;;;;;;5053690;28;20207;-53
2021/06/18 08:20:20;;;;;;;8.13;7.43;;;;;;;;;;5037931;28;20184;-53
2021/06/18 08:22:47;;;;;;;8.80;7.50;;;;;;;;;;5055888;28;20191;-55
2021/06/18 08:25:14;;;;;;;9.37;7.53;;;;;;;;;;5055698;28;20184;-57
2021/06/18 08:27:40;;;;;;;8.93;8.10;;;;;;;;;;5053068;28;20639;-53
2021/06/18 08:30:07;;;;;;;8.47;7.60;;;;;;;;;;5056307;28;20189;-53
2021/06/18 08:32:33;;;;;;;9.77;7.47;;;;;;;;;;5055349;28;20249;-54
2021/06/18 08:34:59;;;;;;;8.73;7.77;;;;;;;;;;5055429;28;20175;-54
2021/06/18 08:37:25;;;;;;;8.37;7.13;;;;;;;;;;5052738;28;20204;-55
2021/06/18 08:39:51;;;;;;;9.57;8.57;;;;;;;;;;5054442;28;20174;-53
2021/06/18 08:42:18;;;;;;;7.43;6.60;;;;;;;;;;5053771;28;20174;-53
2021/06/18 08:44:45;;;;;;;8.17;7.30;;;;;;;;;;5054927;28;20172;-53
2021/06/18 08:47:12;;;;;;;10.83;7.83;;;;;;;;;;5053454;28;20245;-54
2021/06/18 08:49:38;;;;;;;12.43;8.73;;;;;;;;;;5057096;28;20182;-54
2021/06/18 08:52:04;;;;;;;14.63;8.77;;;;;;;;;;5052494;28;20737;-57
2021/06/18 08:54:44;;;;;;;16.80;10.30;;;;;;;;;;5053119;28;20211;-54
2021/06/18 08:57:15;;;;;;;21.57;10.57;;;;;;;;;;5052153;28;20317;-55
2021/06/18 08:59:42;;;;;;;13.03;9.87;;;;;;;;;;5050755;28;20572;-55
2021/06/18 09:02:09;;;;;;;17.23;11.00;;;;;;;;;;5050721;28;20288;-57
2021/06/18 09:04:55;;;;;;;15.00;10.57;;;;;;;;;;5052595;28;20185;-54
2021/06/18 09:07:21;;;;;;;12.80;9.47;;;;;;;;;;5050427;28;20222;-54
2021/06/18 09:09:47;;;;;;;14.10;9.97;;;;;;;;;;5052304;28;20512;-54
2021/06/18 09:12:15;;;;;;;11.93;10.70;;;;;;;;;;5050919;28;20212;-55
2021/06/18 09:14:41;;;;;;;11.70;9.17;;;;;;;;;;5051549;28;20202;-54
2021/06/18 09:17:19;;;;;;;12.53;9.33;;;;;;;;;;5048823;28;20268;-59
2021/06/18 09:19:52;;;;;;;12.73;9.60;;;;;;;;;;5049750;28;20575;-58
2021/06/18 09:22:23;;;;;;;14.47;9.57;;;;;;;;;;5032380;28;20642;-54
2021/06/18 09:24:56;;;;;;;12.57;8.97;;;;;;;;;;5050668;28;20181;-53
2021/06/18 09:27:33;;;;;;;15.17;8.23;;;;;;;;;;5050667;28;20189;-53
2021/06/18 09:30:15;;;;;;;15.67;9.03;;;;;;;;;;5051590;28;20778;-53
2021/06/18 09:32:53;;;;;;;12.17;8.57;;;;;;;;;;5050228;28;20535;-53
2021/06/18 09:35:19;;;;;;;10.70;8.87;;;;;;;;;;5049299;28;20168;-53
2021/06/18 09:37:52;;;;;;;12.27;7.63;;;;;;;;;;5048648;28;20334;-56
2021/06/18 09:40:20;;;;;;;9.57;7.50;;;;;;;;;;5043032;28;20181;-55
2021/06/18 09:42:59;;;;;;;9.63;8.10;;;;;;;;;;5048805;28;20189;-53
2021/06/18 09:45:25;;;;;;;9.00;7.80;;;;;;;;;;5046205;28;20327;-54
2021/06/18 09:47:52;;;;;;;11.18;7.60;;;;;;;;;;5047753;28;20204;-53
2021/06/18 09:50:31;;;;;;;9.15;7.85;;;;;;;;;;5049724;28;20671;-53
2021/06/18 09:53:13;;;;;;;9.43;8.47;;;;;;;;;;5042360;28;20253;-54
2021/06/18 09:55:40;;;;;;;9.18;7.40;;;;;;;;;;5050632;28;20206;-53
2021/06/18 09:58:06;;;;;;;10.90;8.40;;;;;;;;;;5048324;28;20177;-55
2021/06/18 10:00:32;;;;;;;8.75;7.50;;;;;;;;;;5049344;28;20177;-53
2021/06/18 10:02:59;;;;;;;10.45;7.53;;;;;;;;;;5046879;28;20203;-54
2021/06/18 10:05:27;;;;;;;9.18;7.43;;;;;;;;;;5048513;28;20178;-58
2021/06/18 10:07:54;;;;;;;8.55;6.78;;;;;;;;;;5047670;28;20635;-56
2021/06/18 10:10:21;;;;;;;8.43;6.90;;;;;;;;;;5032322;28;20180;-57
2021/06/18 10:12:48;;;;;;;8.15;5.80;;;;;;;;;;5050014;28;20239;-55
2021/06/18 10:15:16;;;;;;;9.45;6.20;;;;;;;;;;5051801;28;20684;-54
2021/06/18 10:17:43;;;;;;;10.15;5.65;;;;;;;;;;5048936;28;20185;-55
2021/06/18 10:20:10;;;;;;;10.85;5.90;;;;;;;;;;5049939;28;20270;-53
2021/06/18 10:22:46;;;;;;;11.40;6.53;;;;;;;;;;5047421;28;20238;-55
2021/06/18 10:25:14;;;;;;;9.40;6.13;;;;;;;;;;5048782;28;20244;-54
2021/06/18 10:27:44;;;;;;;8.05;6.43;;;;;;;;;;5046300;28;20208;-55
2021/06/18 10:30:23;;;;;;;12.13;6.15;;;;;;;;;;5044641;28;20252;-54
2021/06/18 10:32:49;;;;;;;8.63;5.88;;;;;;;;;;5043714;28;20187;-54
2021/06/18 10:35:35;;;;;;;8.35;5.45;;;;;;;;;;5042185;28;20193;-56
2021/06/18 10:38:01;;;;;;;6.43;5.80;;;;;;;;;;5044653;28;20548;-55
2021/06/18 10:40:42;;;;;;;7.65;6.22;;;;;;;;;;5049342;28;20191;-55
2021/06/18 10:43:10;;;;;;;9.63;6.00;;;;;;;;;;5047021;28;20167;-57
2021/06/18 10:45:54;;;;;;;9.35;6.68;;;;;;;;;;5047666;28;20169;-57
2021/06/18 10:48:40;;;;;;;14.27;6.07;;;;;;;;;;5050253;28;20583;-57
2021/06/18 10:51:30;;;;;;;7.53;5.60;;;;;;;;;;5051519;28;20177;-57
2021/06/18 10:53:56;;;;;;;7.03;5.43;;;;;;;;;;5052793;28;20660;-56
2021/06/18 10:56:24;;;;;;;9.32;5.68;;;;;;;;;;5035683;28;20199;-56
2021/06/18 10:59:07;;;;;;;6.95;4.90;;;;;;;;;;5052928;28;20205;-57
2021/06/18 11:01:34;;;;;;;7.45;4.90;;;;;;;;;;5050461;28;20308;-55
2021/06/18 11:04:00;;;;;;;8.25;5.95;;;;;;;;;;5052192;28;20188;-56
2021/06/18 11:06:55;;;;;;;8.10;6.20;;;;;;;;;;5052397;28;20593;-58
2021/06/18 11:09:40;;;;;;;8.57;5.28;;;;;;;;;;5036796;28;20197;-56
2021/06/18 11:12:27;;;;;;;9.82;6.57;;;;;;;;;;5049816;28;20235;-56
2021/06/18 11:14:53;;;;;;;10.60;6.43;;;;;;;;;;5050577;28;20231;-53
2021/06/18 11:17:41;;;;;;;6.68;5.88;;;;;;;;;;5050631;28;20598;-54
2021/06/18 11:20:09;;;;;;;9.80;6.68;;;;;;;;;;5052655;28;20243;-59
2021/06/18 11:22:35;;;;;;;9.32;5.75;;;;;;;;;;5052246;28;20203;-59
2021/06/18 11:25:01;;;;;;;8.40;5.85;;;;;;;;;;5052849;28;20198;-60
2021/06/18 11:27:28;;;;;;;11.10;6.13;;;;;;;;;;5051097;28;20300;-62
2021/06/18 11:30:30;;;;;;;12.98;6.03;;;;;;;;;;5052400;28;20649;-60
2021/06/18 11:32:57;;;;;;;9.23;6.22;;;;;;;;;;4961324;28;20554;-58
2021/06/18 11:35:32;;;;;;;7.75;6.90;;;;;;;;;;5036059;28;20199;-59
2021/06/18 11:38:10;;;;;;;9.35;6.63;;;;;;;;;;5049414;28;20297;-58
2021/06/18 11:40:36;;;;;;;9.00;6.30;;;;;;;;;;5048759;28;20198;-59
2021/06/18 11:43:02;;;;;;;8.57;6.10;;;;;;;;;;5050426;28;20552;-58
2021/06/18 11:45:42;;;;;;;9.85;5.75;;;;;;;;;;5050967;28;20234;-57
2021/06/18 11:48:17;;;;;;;8.80;6.38;;;;;;;;;;5049708;28;20527;-58
2021/06/18 11:50:44;;;;;;;9.43;5.60;;;;;;;;;;5051299;28;20180;-58
2021/06/18 11:53:11;;;;;;;8.63;6.57;;;;;;;;;;5051694;28;20735;-58
2021/06/18 11:55:37;;;;;;;11.20;6.10;;;;;;;;;;5051966;28;20178;-58
2021/06/18 11:58:03;;;;;;;8.57;5.82;;;;;;;;;;5049731;28;20177;-57
2021/06/18 12:00:34;;;;;;;6.95;6.25;;;;;;;;;;5052652;28;20256;-58
2021/06/18 12:03:00;;;;;;;10.40;5.45;;;;;;;;;;5048464;28;20683;-57
2021/06/18 12:05:33;;;;;;;7.53;5.13;;;;;;;;;;5052130;28;20519;-58
2021/06/18 12:08:00;;;;;;;8.35;5.47;;;;;;;;;;5050880;28;20166;-59
2021/06/18 12:10:27;;;;;;;9.95;4.63;;;;;;;;;;5033684;28;20204;-59
2021/06/18 12:12:54;;;;;;;10.75;4.82;;;;;;;;;;5032101;28;20546;-59
2021/06/18 12:15:31;;;;;;;7.05;4.65;;;;;;;;;;5046298;28;20567;-58
2021/06/18 12:17:58;;;;;;;9.95;4.35;;;;;;;;;;5050424;28;20721;-57
2021/06/18 12:20:38;;;;;;;6.90;4.13;;;;;;;;;;5050706;28;20184;-56
2021/06/18 12:23:05;;;;;;;9.73;4.22;;;;;;;;;;5050404;28;20173;-57
2021/06/18 12:25:32;;;;;;;4.72;4.00;;;;;;;;;;5051602;28;20647;-57
2021/06/18 12:28:00;;;;;;;8.55;4.35;;;;;;;;;;5049886;28;20175;-59
2021/06/18 12:30:29;;;;;;;5.97;3.78;;;;;;;;;;5051876;28;20176;-57
2021/06/18 12:32:55;;;;;;;6.85;4.03;;;;;;;;;;5050438;28;20258;-58
2021/06/18 12:35:31;;;;;;;6.78;3.63;;;;;;;;;;5051075;28;20215;-59
2021/06/18 12:38:00;;;;;;;5.68;3.60;;;;;;;;;;5049103;28;20585;-59
2021/06/18 12:40:28;;;;;;;6.20;3.67;;;;;;;;;;5049109;28;20196;-59
2021/06/18 12:42:55;;;;;;;8.38;3.70;;;;;;;;;;5030333;28;20184;-60
2021/06/18 12:45:31;;;;;;;8.10;3.83;;;;;;;;;;5048352;28;20598;-59
2021/06/18 12:48:14;;;;;;;4.82;3.80;;;;;;;;;;5032502;28;20609;-58
2021/06/18 12:50:44;;;;;;;12.25;4.15;;;;;;;;;;5051929;28;20219;-60
2021/06/18 12:53:12;;;;;;;21.98;5.93;;;;;;;;;;5052343;28;20181;-61
2021/06/18 12:55:39;;;;;;;27.15;7.53;;;;;;;;;;5050112;28;20530;-63
2021/06/18 12:58:07;;;;;;;9.15;4.53;;;;;;;;;;5032070;28;20272;-60
2021/06/18 13:00:51;;;;;;;7.03;4.32;;;;;;;;;;5050569;28;20230;-61
2021/06/18 13:03:32;;;;;;;11.45;4.03;;;;;;;;;;5033065;28;20295;-60
2021/06/18 13:05:58;;;;;;;14.07;4.38;;;;;;;;;;5051133;28;20177;-59
2021/06/18 13:08:24;;;;;;;10.10;4.32;;;;;;;;;;5051851;28;20203;-59
2021/06/18 13:10:51;;;;;;;8.68;3.92;;;;;;;;;;5051813;28;20612;-59
2021/06/18 13:13:21;;;;;;;8.38;4.88;;;;;;;;;;5051036;28;20222;-59
2021/06/18 13:15:48;;;;;;;4.53;3.47;;;;;;;;;;5054454;28;20216;-60
2021/06/18 13:18:14;;;;;;;4.45;3.65;;;;;;;;;;5048641;28;20177;-60
2021/06/18 13:20:40;;;;;;;8.60;4.38;;;;;;;;;;5028514;28;20230;-61
2021/06/18 13:23:25;;;;;;;12.73;4.25;;;;;;;;;;5051480;28;20173;-59
2021/06/18 13:26:02;;;;;;;6.32;3.65;;;;;;;;;;5046162;28;20177;-60
2021/06/18 13:28:42;;;;;;;8.18;3.70;;;;;;;;;;5046272;28;20215;-54
2021/06/18 13:31:09;;;;;;;8.23;4.00;;;;;;;;;;5048373;28;20687;-60
2021/06/18 13:33:45;;;;;;;5.55;3.95;;;;;;;;;;5048661;28;20197;-60
2021/06/18 13:36:11;;;;;;;5.72;3.58;;;;;;;;;;5048571;28;20189;-60
2021/06/18 13:38:38;;;;;;;5.15;3.20;;;;;;;;;;5050563;28;20181;-61
2021/06/18 13:41:04;;;;;;;5.47;3.58;;;;;;;;;;5051056;28;20207;-62
2021/06/18 13:43:30;;;;;;;4.72;3.40;;;;;;;;;;5050744;28;20565;-62
2021/06/18 13:45:56;;;;;;;4.07;3.30;;;;;;;;;;5047571;28;20207;-62
2021/06/18 13:48:22;;;;;;;9.05;3.97;;;;;;;;;;5036215;28;20185;-59
2021/06/18 13:50:52;;;;;;;7.18;4.00;;;;;;;;;;5048548;28;20185;-59
2021/06/18 13:53:18;;;;;;;11.23;3.17;;;;;;;;;;5049967;28;20248;-59
2021/06/18 13:55:46;;;;;;;5.00;3.67;;;;;;;;;;5052050;28;20173;-60
2021/06/18 13:58:12;;;;;;;8.60;3.83;;;;;;;;;;5050218;28;20625;-60
2021/06/18 14:00:38;;;;;;;6.32;3.78;;;;;;;;;;5050596;28;20243;-60
2021/06/18 14:03:04;;;;;;;7.00;4.50;;;;;;;;;;5049923;28;20208;-60
2021/06/18 14:05:30;;;;;;;6.45;4.35;;;;;;;;;;5050154;28;20292;-62
2021/06/18 14:07:56;;;;;;;9.70;4.28;;;;;;;;;;5049222;28;20177;-59
2021/06/18 14:10:22;;;;;;;7.35;4.25;;;;;;;;;;5049288;28;20649;-59
2021/06/18 14:12:48;;;;;;;6.40;3.80;;;;;;;;;;5049720;28;20239;-59
2021/06/18 14:15:23;;;;;;;10.73;4.18;;;;;;;;;;5048866;28;20205;-61
2021/06/18 14:17:49;;;;;;;9.13;3.95;;;;;;;;;;5048767;28;20211;-63
2021/06/18 14:20:15;;;;;;;7.72;4.07;;;;;;;;;;5049879;28;20288;-59
2021/06/18 14:22:41;;;;;;;9.05;4.43;;;;;;;;;;5050453;28;20269;-59
2021/06/18 14:25:08;;;;;;;5.20;4.70;;;;;;;;;;5048842;28;20185;-60
2021/06/18 14:27:34;;;;;;;5.50;4.22;;;;;;;;;;5046837;28;20177;-61
2021/06/18 14:30:01;;;;;;;10.13;4.47;;;;;;;;;;5031228;28;20204;-60
2021/06/18 14:32:27;;;;;;;8.02;4.22;;;;;;;;;;5046970;28;20184;-60
2021/06/18 14:34:53;;;;;;;6.72;4.30;;;;;;;;;;5047448;28;20196;-61
2021/06/18 14:37:19;;;;;;;5.75;4.25;;;;;;;;;;5048078;28;20209;-61
2021/06/18 14:39:46;;;;;;;12.00;4.40;;;;;;;;;;5051065;28;20177;-61
2021/06/18 14:42:12;;;;;;;9.40;4.00;;;;;;;;;;5043457;28;20173;-61
2021/06/18 14:44:39;;;;;;;6.65;4.00;;;;;;;;;;5049594;28;20189;-60
2021/06/18 14:47:05;;;;;;;4.43;3.53;;;;;;;;;;5049381;28;20203;-60
2021/06/18 14:49:31;;;;;;;5.35;3.47;;;;;;;;;;5047752;28;20264;-60